Time;durP1;ratioP1;P1;durP2;ratioP2;P2;SDS_P1;SDS_P2;PMS_P1;PMS_P2;Temp;Humidity;BMP_temperature;BMP_pressure;BME280_temperature;BME280_humidity;BME280_pressure;Samples;Min_cycle;Max_cycle;Signal;HPM_P1;HPM_P2
2021/05/01 00:01:19;;;;;;;28.40;22.97;;;11.10;94.90;;;;;;5035761;28;20897;-87
2021/05/01 00:03:45;;;;;;;28.23;25.10;;;11.00;94.80;;;;;;5036528;28;20658;-88
2021/05/01 00:06:11;;;;;;;26.23;20.33;;;11.10;94.90;;;;;;5053674;28;20407;-88
2021/05/01 00:08:37;;;;;;;28.53;22.07;;;11.10;95.00;;;;;;5054167;28;20580;-88
2021/05/01 00:11:03;;;;;;;28.10;21.27;;;11.10;95.10;;;;;;5053476;28;20686;-86
2021/05/01 00:13:30;;;;;;;26.13;21.90;;;11.10;95.30;;;;;;5054296;28;20213;-88
2021/05/01 00:15:57;;;;;;;27.30;22.50;;;11.20;95.20;;;;;;5036379;28;20420;-87
2021/05/01 00:18:23;;;;;;;35.17;23.50;;;11.10;95.10;;;;;;5052876;28;20419;-87
2021/05/01 00:20:48;;;;;;;29.43;24.10;;;11.10;95.10;;;;;;5054042;28;20775;-88
2021/05/01 00:23:14;;;;;;;28.97;22.17;;;11.10;95.30;;;;;;5053158;28;20952;-87
2021/05/01 00:25:40;;;;;;;28.97;22.63;;;11.10;95.30;;;;;;5053589;28;20177;-87
2021/05/01 00:28:05;;;;;;;28.60;23.27;;;11.10;95.40;;;;;;5035467;28;20528;-86
2021/05/01 00:30:31;;;;;;;32.50;22.70;;;11.20;95.40;;;;;;5053600;28;20187;-87
2021/05/01 00:32:57;;;;;;;29.97;22.53;;;11.10;95.50;;;;;;5053871;28;20183;-88
2021/05/01 00:35:24;;;;;;;31.70;23.70;;;11.10;95.60;;;;;;5052816;28;20213;-88
2021/05/01 00:37:49;;;;;;;28.67;22.33;;;11.10;95.50;;;;;;5053795;28;20415;-87
2021/05/01 00:40:15;;;;;;;27.90;21.60;;;11.10;95.70;;;;;;5053142;28;20413;-87
2021/05/01 00:42:41;;;;;;;27.80;21.87;;;11.10;95.90;;;;;;5053644;28;20179;-87
2021/05/01 00:45:08;;;;;;;28.47;24.70;;;11.20;95.90;;;;;;5052300;28;20435;-86
2021/05/01 00:47:33;;;;;;;29.00;23.10;;;11.10;96.00;;;;;;5052979;28;20178;-88
2021/05/01 00:49:59;;;;;;;31.40;23.40;;;11.10;96.30;;;;;;5053497;28;20522;-87
2021/05/01 00:52:26;;;;;;;26.37;22.50;;;11.20;96.50;;;;;;5052683;28;20186;-88
2021/05/01 00:54:52;;;;;;;27.30;23.20;;;11.20;96.50;;;;;;5053717;28;20205;-87
2021/05/01 00:57:18;;;;;;;26.83;21.40;;;11.10;96.60;;;;;;5053205;28;20894;-87
2021/05/01 00:59:44;;;;;;;29.60;23.20;;;11.20;96.50;;;;;;5053609;28;20186;-87
2021/05/01 01:02:09;;;;;;;28.47;24.20;;;11.20;96.40;;;;;;5034527;28;20419;-87
2021/05/01 01:04:35;;;;;;;30.27;24.03;;;11.20;96.70;;;;;;5035252;28;20261;-88
2021/05/01 01:07:01;;;;;;;27.13;22.60;;;11.20;96.90;;;;;;5035801;28;20906;-88
2021/05/01 01:09:27;;;;;;;30.90;24.07;;;11.20;97.00;;;;;;5052703;28;20202;-88
2021/05/01 01:11:53;;;;;;;30.97;23.73;;;11.20;97.00;;;;;;5052976;28;20184;-87
2021/05/01 01:14:19;;;;;;;28.40;23.23;;;11.20;97.00;;;;;;5052089;28;20570;-87
2021/05/01 01:16:45;;;;;;;27.10;23.60;;;11.10;97.00;;;;;;5035764;28;20420;-88
2021/05/01 01:19:13;;;;;;;30.10;24.43;;;11.20;97.30;;;;;;5035307;28;20556;-88
2021/05/01 01:21:49;;;;;;;31.43;24.33;;;11.20;97.30;;;;;;5019649;28;20424;-88
2021/05/01 01:24:15;;;;;;;27.77;24.10;;;11.20;97.20;;;;;;5052578;28;20462;-87
2021/05/01 01:26:42;;;;;;;30.90;24.60;;;11.20;97.30;;;;;;5053004;28;20411;-87
2021/05/01 01:29:09;;;;;;;30.63;23.60;;;11.20;97.40;;;;;;5051746;28;20426;-87
2021/05/01 01:31:35;;;;;;;29.60;24.10;;;11.20;97.60;;;;;;5035504;28;20414;-87
2021/05/01 01:34:02;;;;;;;28.50;25.20;;;11.20;97.60;;;;;;5053428;28;20475;-87
2021/05/01 01:36:28;;;;;;;29.17;23.60;;;11.20;97.80;;;;;;5051997;28;20441;-86
2021/05/01 01:38:54;;;;;;;29.27;24.10;;;11.30;97.90;;;;;;5052786;28;20420;-86
2021/05/01 01:41:20;;;;;;;30.00;23.63;;;11.20;97.80;;;;;;5034265;28;20170;-88
2021/05/01 01:43:46;;;;;;;29.53;24.20;;;11.10;97.90;;;;;;5052738;28;20179;-88
2021/05/01 01:46:12;;;;;;;30.67;24.00;;;11.10;97.90;;;;;;5052139;28;20474;-85
2021/05/01 01:48:38;;;;;;;27.87;23.67;;;11.10;98.30;;;;;;5034458;28;20424;-86
2021/05/01 01:51:04;;;;;;;32.33;25.63;;;11.10;98.00;;;;;;5052446;28;20421;-87
2021/05/01 01:53:30;;;;;;;31.73;24.63;;;11.20;98.10;;;;;;5051717;28;20240;-87
2021/05/01 01:55:55;;;;;;;34.00;24.73;;;11.20;98.10;;;;;;5052147;28;20908;-87
2021/05/01 01:58:22;;;;;;;30.67;25.10;;;11.10;98.20;;;;;;5051353;28;20424;-87
2021/05/01 02:00:49;;;;;;;33.93;28.20;;;11.10;98.30;;;;;;5052244;28;20175;-87
2021/05/01 02:03:15;;;;;;;34.73;26.90;;;11.10;98.30;;;;;;5051377;28;20421;-88
2021/05/01 02:05:42;;;;;;;30.13;25.77;;;11.10;98.20;;;;;;5052242;28;20435;-87
2021/05/01 02:08:08;;;;;;;33.17;27.60;;;11.20;98.00;;;;;;5051478;28;20410;-87
2021/05/01 02:10:34;;;;;;;34.13;25.90;;;11.20;97.60;;;;;;5052335;28;20414;-88
2021/05/01 02:13:00;;;;;;;32.70;25.97;;;11.20;97.60;;;;;;5052186;28;20489;-87
2021/05/01 02:15:26;;;;;;;35.60;28.27;;;11.20;97.90;;;;;;5033692;28;20477;-88
2021/05/01 02:17:55;;;;;;;39.33;28.50;;;11.30;98.10;;;;;;5052065;28;20593;-87
2021/05/01 02:20:23;;;;;;;35.33;28.60;;;11.20;98.10;;;;;;5051136;28;20879;-87
2021/05/01 02:22:52;;;;;;;36.37;26.77;;;11.20;98.00;;;;;;5052095;28;20387;-86
2021/05/01 02:25:18;;;;;;;39.57;28.10;;;11.20;98.10;;;;;;5069640;28;20526;-87
2021/05/01 02:27:45;;;;;;;35.40;28.30;;;11.20;98.00;;;;;;5072109;28;20496;-87
2021/05/01 02:30:14;;;;;;;33.80;27.00;;;11.20;97.80;;;;;;5070901;28;20919;-87
2021/05/01 02:32:40;;;;;;;38.33;29.30;;;11.20;97.80;;;;;;5071968;28;20410;-87
2021/05/01 02:35:08;;;;;;;37.17;29.50;;;11.20;97.70;;;;;;5071907;28;20966;-88
2021/05/01 02:37:35;;;;;;;41.40;31.40;;;11.30;97.80;;;;;;5069374;28;20856;-87
2021/05/01 02:40:01;;;;;;;38.43;30.67;;;11.30;97.80;;;;;;5071775;28;20417;-87
2021/05/01 02:42:27;;;;;;;42.60;31.93;;;11.30;97.70;;;;;;5071097;28;20441;-87
2021/05/01 02:44:52;;;;;;;40.77;31.77;;;11.30;97.70;;;;;;5071804;28;20424;-87
2021/05/01 02:47:18;;;;;;;41.90;33.80;;;11.30;97.70;;;;;;5071217;28;20184;-87
2021/05/01 02:49:44;;;;;;;42.50;32.97;;;11.40;97.50;;;;;;5075780;28;20533;-86
2021/05/01 02:52:10;;;;;;;46.60;34.30;;;11.30;97.50;;;;;;5075063;28;20437;-86
2021/05/01 02:54:36;;;;;;;47.10;35.97;;;11.40;97.70;;;;;;5075466;28;20469;-86
2021/05/01 02:57:01;;;;;;;42.73;31.93;;;11.40;97.60;;;;;;5075896;28;20642;-85
2021/05/01 02:59:27;;;;;;;46.67;33.57;;;11.40;97.70;;;;;;5074851;28;20176;-85
2021/05/01 03:01:53;;;;;;;45.60;33.50;;;11.40;97.80;;;;;;5075662;28;20183;-86
2021/05/01 03:04:18;;;;;;;43.07;32.80;;;11.40;97.70;;;;;;5074768;28;20658;-87
2021/05/01 03:06:44;;;;;;;47.83;35.67;;;11.40;97.80;;;;;;5073802;28;20179;-87
2021/05/01 03:09:10;;;;;;;45.23;32.90;;;11.40;97.90;;;;;;5075332;28;20538;-86
2021/05/01 03:11:36;;;;;;;44.53;33.17;;;11.40;97.90;;;;;;5075398;28;20409;-86
2021/05/01 03:14:01;;;;;;;46.80;34.30;;;11.40;98.30;;;;;;5075113;28;20214;-87
2021/05/01 03:16:27;;;;;;;44.90;32.90;;;11.30;97.90;;;;;;5074543;28;20182;-87
2021/05/01 03:18:53;;;;;;;46.10;33.50;;;11.30;98.00;;;;;;5073795;28;20442;-87
2021/05/01 03:21:19;;;;;;;44.07;32.70;;;11.30;98.10;;;;;;5073323;28;20600;-87
2021/05/01 03:23:44;;;;;;;45.60;32.40;;;11.20;98.20;;;;;;5068123;28;20229;-87
2021/05/01 03:26:10;;;;;;;46.07;33.23;;;11.30;98.30;;;;;;5054782;28;20180;-86
2021/05/01 03:28:36;;;;;;;46.73;32.70;;;11.20;98.30;;;;;;5036628;28;20183;-86
2021/05/01 03:31:01;;;;;;;43.33;32.53;;;11.20;98.40;;;;;;5054654;28;20652;-86
2021/05/01 03:33:28;;;;;;;51.40;34.40;;;11.30;98.40;;;;;;5053941;28;20208;-87
2021/05/01 03:35:56;;;;;;;47.63;31.97;;;11.20;98.30;;;;;;5054760;28;20205;-86
2021/05/01 03:38:22;;;;;;;46.93;35.07;;;11.20;98.40;;;;;;5054430;28;20504;-86
2021/05/01 03:40:49;;;;;;;47.47;35.20;;;11.20;98.40;;;;;;5054924;28;20397;-86
2021/05/01 03:43:15;;;;;;;46.40;32.67;;;11.20;98.30;;;;;;5053895;28;20450;-85
2021/05/01 03:45:41;;;;;;;45.30;33.20;;;11.20;98.20;;;;;;5054617;28;20506;-86
2021/05/01 03:48:08;;;;;;;45.13;33.57;;;11.20;98.20;;;;;;5036975;28;20499;-86
2021/05/01 03:50:34;;;;;;;46.60;33.00;;;11.20;98.20;;;;;;5054012;28;20789;-86
2021/05/01 03:53:00;;;;;;;46.73;33.57;;;11.10;98.30;;;;;;5036582;28;20414;-87
2021/05/01 03:55:26;;;;;;;46.47;33.20;;;11.10;98.30;;;;;;5053558;28;20474;-88
2021/05/01 03:57:52;;;;;;;48.53;35.20;;;11.10;98.20;;;;;;5054549;28;20764;-89
2021/05/01 04:00:19;;;;;;;41.50;31.13;;;11.10;98.10;;;;;;5053408;28;20259;-88
2021/05/01 04:02:45;;;;;;;46.13;32.50;;;11.10;98.10;;;;;;5054543;28;20411;-88
2021/05/01 04:05:13;;;;;;;50.40;33.13;;;11.10;98.10;;;;;;5053792;28;20441;-88
2021/05/01 04:07:39;;;;;;;49.13;33.17;;;11.10;98.10;;;;;;5054192;28;20181;-87
2021/05/01 04:10:05;;;;;;;49.07;34.87;;;11.10;98.20;;;;;;5054472;28;20402;-87
2021/05/01 04:12:31;;;;;;;47.07;32.70;;;11.00;98.40;;;;;;5053183;28;20184;-87
2021/05/01 04:14:56;;;;;;;52.33;35.63;;;11.00;98.50;;;;;;5054139;28;20509;-87
2021/05/01 04:17:22;;;;;;;47.97;32.50;;;11.00;98.70;;;;;;5053478;28;20185;-87
2021/05/01 04:19:49;;;;;;;49.53;35.60;;;11.00;98.90;;;;;;5054221;28;20284;-87
2021/05/01 04:22:18;;;;;;;48.30;33.50;;;11.00;99.00;;;;;;5053635;28;20176;-87
2021/05/01 04:24:44;;;;;;;56.20;35.13;;;11.00;99.00;;;;;;5053728;28;20531;-87
2021/05/01 04:27:10;;;;;;;51.43;35.13;;;11.00;99.00;;;;;;5036131;28;20462;-87
2021/05/01 04:29:36;;;;;;;57.70;35.20;;;11.00;99.10;;;;;;5035513;28;20312;-87
2021/05/01 04:32:01;;;;;;;50.80;35.80;;;11.10;99.10;;;;;;5053450;28;20248;-87
2021/05/01 04:34:27;;;;;;;55.97;37.00;;;11.10;99.10;;;;;;5052726;28;20250;-87
2021/05/01 04:36:53;;;;;;;55.80;37.07;;;11.20;99.10;;;;;;5053369;28;20632;-88
2021/05/01 04:39:18;;;;;;;56.20;37.03;;;11.10;99.00;;;;;;5035245;28;20663;-87
2021/05/01 04:41:45;;;;;;;52.20;34.37;;;11.10;99.00;;;;;;5035685;28;20180;-88
2021/05/01 04:44:11;;;;;;;55.93;36.63;;;11.10;98.90;;;;;;5035897;28;20175;-86
2021/05/01 04:46:37;;;;;;;62.40;37.10;;;11.10;98.80;;;;;;5052559;28;20443;-87
2021/05/01 04:49:07;;;;;;;54.00;35.67;;;11.20;98.90;;;;;;5053633;28;20181;-88
2021/05/01 04:51:34;;;;;;;49.70;33.93;;;11.20;98.70;;;;;;5052585;28;20180;-88
2021/05/01 04:54:01;;;;;;;51.40;34.70;;;11.20;98.60;;;;;;5035919;28;20836;-87
2021/05/01 04:56:27;;;;;;;55.53;36.43;;;11.20;98.40;;;;;;5052670;28;20415;-87
2021/05/01 04:58:52;;;;;;;54.57;36.77;;;11.20;98.40;;;;;;5053409;28;20408;-87
2021/05/01 05:01:18;;;;;;;55.80;36.70;;;11.30;98.50;;;;;;5052675;28;20189;-85
2021/05/01 05:03:44;;;;;;;55.67;36.90;;;11.30;98.40;;;;;;5053083;28;20191;-87
2021/05/01 05:06:10;;;;;;;53.27;36.47;;;11.30;98.30;;;;;;5053370;28;20191;-87
2021/05/01 05:08:35;;;;;;;54.23;36.30;;;11.30;98.30;;;;;;5052207;28;20186;-87
2021/05/01 05:11:01;;;;;;;54.87;36.97;;;11.40;98.10;;;;;;5034046;28;20239;-87
2021/05/01 05:13:27;;;;;;;48.83;33.27;;;11.30;97.90;;;;;;5034493;28;20216;-87
2021/05/01 05:15:53;;;;;;;51.57;36.00;;;11.30;97.60;;;;;;5053016;28;20683;-88
2021/05/01 05:18:19;;;;;;;46.27;33.00;;;11.40;97.40;;;;;;5052560;28;20187;-86
2021/05/01 05:20:45;;;;;;;53.87;33.40;;;11.40;97.40;;;;;;5052635;28;20411;-87
2021/05/01 05:23:11;;;;;;;53.30;35.00;;;11.30;97.00;;;;;;5052871;28;20491;-87
2021/05/01 05:25:37;;;;;;;53.03;34.00;;;11.40;96.70;;;;;;5034202;28;20503;-87
2021/05/01 05:28:03;;;;;;;45.10;31.60;;;11.40;96.50;;;;;;5035086;28;20240;-87
2021/05/01 05:30:29;;;;;;;47.93;32.13;;;11.40;96.40;;;;;;5034045;28;20894;-86
2021/05/01 05:32:56;;;;;;;47.20;33.57;;;11.40;96.20;;;;;;5052618;28;20422;-87
2021/05/01 05:35:22;;;;;;;47.67;34.07;;;11.40;96.10;;;;;;5034174;28;20207;-86
2021/05/01 05:37:48;;;;;;;51.03;34.90;;;11.40;96.00;;;;;;5034904;28;20408;-87
2021/05/01 05:40:15;;;;;;;51.70;32.00;;;11.40;95.90;;;;;;5052541;28;20420;-87
2021/05/01 05:42:42;;;;;;;46.80;32.60;;;11.40;96.00;;;;;;5034120;28;20234;-87
2021/05/01 05:45:09;;;;;;;49.97;31.93;;;11.40;95.80;;;;;;5034841;28;20446;-88
2021/05/01 05:47:35;;;;;;;42.20;31.17;;;11.40;95.80;;;;;;5051593;28;20462;-87
2021/05/01 05:50:01;;;;;;;51.33;32.90;;;11.40;96.00;;;;;;5052214;28;20503;-87
2021/05/01 05:52:26;;;;;;;43.40;31.23;;;11.30;95.70;;;;;;5051720;28;20184;-88
2021/05/01 05:54:52;;;;;;;40.70;29.13;;;11.40;95.60;;;;;;5052377;28;20216;-88
2021/05/01 05:57:18;;;;;;;45.00;31.87;;;11.40;95.50;;;;;;5052693;28;20213;-86
2021/05/01 05:59:44;;;;;;;43.50;28.80;;;11.40;95.20;;;;;;5051641;28;20214;-86
2021/05/01 06:02:14;;;;;;;42.70;29.17;;;11.40;95.30;;;;;;5051829;28;20183;-87
2021/05/01 06:04:58;;;;;;;40.53;30.23;;;11.50;95.50;;;;;;5051522;28;20482;-86
2021/05/01 06:07:27;;;;;;;39.47;28.30;;;11.50;95.30;;;;;;5051644;28;20404;-86
2021/05/01 06:09:55;;;;;;;40.57;27.90;;;11.50;95.10;;;;;;5051644;28;20777;-86
2021/05/01 06:12:22;;;;;;;40.10;28.57;;;11.50;94.90;;;;;;5033828;28;20436;-86
2021/05/01 06:14:49;;;;;;;40.03;27.87;;;11.50;94.80;;;;;;5051167;28;20480;-88
2021/05/01 06:17:21;;;;;;;37.10;27.90;;;11.60;94.90;;;;;;5052448;28;20500;-87
2021/05/01 06:19:49;;;;;;;35.90;26.93;;;11.60;94.50;;;;;;5052230;28;20406;-87
2021/05/01 06:22:15;;;;;;;37.60;27.30;;;11.50;94.40;;;;;;5051663;28;20418;-87
2021/05/01 06:24:42;;;;;;;39.60;27.40;;;11.50;94.10;;;;;;5060127;28;20469;-87
2021/05/01 06:27:08;;;;;;;42.40;25.90;;;11.50;93.70;;;;;;5071857;28;20429;-86
2021/05/01 06:29:38;;;;;;;41.20;27.43;;;11.60;93.50;;;;;;5071435;28;20922;-86
2021/05/01 06:32:06;;;;;;;38.37;26.80;;;11.60;93.60;;;;;;5072713;28;20413;-86
2021/05/01 06:34:33;;;;;;;39.30;28.57;;;11.60;93.60;;;;;;5061255;28;20635;-86
2021/05/01 06:37:02;;;;;;;33.87;26.17;;;11.60;93.60;;;;;;5069246;28;20419;-85
2021/05/01 06:39:32;;;;;;;38.53;27.60;;;11.60;93.50;;;;;;5070345;28;20407;-86
2021/05/01 06:41:59;;;;;;;31.27;24.23;;;11.60;93.40;;;;;;5067072;28;20456;-86
2021/05/01 06:44:38;;;;;;;32.27;24.40;;;11.70;93.30;;;;;;5069310;28;20906;-86
2021/05/01 06:47:05;;;;;;;28.63;23.70;;;11.70;92.80;;;;;;5070790;28;20439;-88
2021/05/01 06:49:39;;;;;;;31.33;24.10;;;11.80;93.00;;;;;;5070476;28;20450;-87
2021/05/01 06:52:07;;;;;;;27.83;22.30;;;11.80;92.70;;;;;;5070546;28;20804;-86
2021/05/01 06:54:33;;;;;;;32.30;23.90;;;11.90;92.70;;;;;;5071372;28;20554;-85
2021/05/01 06:56:59;;;;;;;28.83;24.47;;;12.00;92.60;;;;;;5071442;28;20518;-87
2021/05/01 06:59:25;;;;;;;33.30;23.80;;;12.00;92.60;;;;;;5070666;28;20187;-85
2021/05/01 07:01:51;;;;;;;30.23;23.40;;;12.10;92.50;;;;;;5071972;28;20744;-85
2021/05/01 07:04:17;;;;;;;30.03;24.40;;;12.10;92.10;;;;;;5072178;28;20416;-85
2021/05/01 07:06:45;;;;;;;31.10;24.67;;;12.10;91.20;;;;;;5070390;28;20267;-85
2021/05/01 07:09:11;;;;;;;31.67;23.67;;;12.20;91.30;;;;;;5071840;28;20418;-85
2021/05/01 07:11:37;;;;;;;35.37;24.97;;;12.30;90.80;;;;;;5071390;28;20413;-86
2021/05/01 07:14:03;;;;;;;32.50;23.80;;;12.30;90.90;;;;;;5071873;28;20965;-85
2021/05/01 07:16:29;;;;;;;29.10;22.83;;;12.40;90.80;;;;;;5071089;28;20187;-85
2021/05/01 07:18:58;;;;;;;29.70;25.00;;;12.40;91.00;;;;;;5072169;28;20951;-84
2021/05/01 07:21:24;;;;;;;30.17;23.80;;;12.50;90.20;;;;;;5071305;28;20187;-86
2021/05/01 07:23:50;;;;;;;28.00;23.27;;;12.60;89.80;;;;;;5070466;28;20463;-76
2021/05/01 07:26:21;;;;;;;25.37;22.67;;;12.80;95.80;;;;;;5071205;28;20184;-77
2021/05/01 07:28:49;;;;;;;29.90;23.63;;;12.80;90.60;;;;;;5069991;28;20176;-83
2021/05/01 07:31:29;;;;;;;30.93;24.90;;;12.80;89.00;;;;;;5070926;28;20502;-84
2021/05/01 07:33:57;;;;;;;33.27;24.00;;;12.90;88.40;;;;;;5073168;28;20444;-76
2021/05/01 07:36:33;;;;;;;27.97;24.30;;;12.90;89.00;;;;;;5075619;28;20945;-86
2021/05/01 07:39:01;;;;;;;30.50;23.37;;;13.10;93.80;;;;;;5074406;28;20419;-87
2021/05/01 07:41:28;;;;;;;27.27;21.30;;;13.40;94.70;;;;;;5074886;28;20442;-87
2021/05/01 07:43:54;;;;;;;23.20;19.57;;;13.70;97.80;;;;;;5075445;28;20417;-88
2021/05/01 07:46:23;;;;;;;22.90;18.87;;;14.10;97.40;;;;;;5074140;28;20455;-88
2021/05/01 07:48:50;;;;;;;21.10;18.20;;;14.40;96.60;;;;;;5074077;28;20425;-89
2021/05/01 07:51:16;;;;;;;18.07;16.07;;;14.80;95.40;;;;;;5074579;28;20454;-87
2021/05/01 07:53:44;;;;;;;19.50;17.00;;;15.10;93.70;;;;;;5070242;28;21011;-88
2021/05/01 07:56:10;;;;;;;23.27;18.07;;;15.40;91.90;;;;;;5073348;28;20450;-88
2021/05/01 07:58:36;;;;;;;19.90;17.80;;;15.60;89.00;;;;;;5070597;28;20939;-87
2021/05/01 08:01:02;;;;;;;21.77;19.47;;;15.80;90.10;;;;;;5072999;28;20463;-89
2021/05/01 08:03:28;;;;;;;19.80;17.80;;;16.00;85.20;;;;;;5072130;28;20458;-84
2021/05/01 08:05:54;;;;;;;19.40;17.30;;;16.10;81.40;;;;;;5073420;28;20434;-87
2021/05/01 08:08:19;;;;;;;19.33;17.23;;;16.30;82.40;;;;;;5072877;28;20182;-87
2021/05/01 08:10:45;;;;;;;19.00;17.20;;;16.40;80.60;;;;;;5072353;28;20271;-86
2021/05/01 08:13:11;;;;;;;21.17;19.03;;;16.50;78.00;;;;;;5073258;28;20175;-88
2021/05/01 08:15:39;;;;;;;18.80;17.00;;;16.60;76.80;;;;;;5073783;28;20186;-89
2021/05/01 08:18:09;;;;;;;20.07;18.07;;;16.90;83.70;;;;;;5075078;28;20169;-89
2021/05/01 08:20:35;;;;;;;19.53;17.50;;;17.00;81.10;;;;;;5074205;28;20405;-89
2021/05/01 08:23:02;;;;;;;18.63;16.87;;;17.00;75.60;;;;;;5073253;28;20418;-89
2021/05/01 08:25:29;;;;;;;19.93;17.73;;;17.00;76.80;;;;;;5053878;28;20432;-87
2021/05/01 08:27:55;;;;;;;20.93;18.63;;;17.00;76.40;;;;;;5054565;28;20819;-88
2021/05/01 08:30:21;;;;;;;21.50;19.40;;;17.10;75.80;;;;;;5055346;28;20419;-92
2021/05/01 08:32:48;;;;;;;24.77;20.73;;;17.10;70.50;;;;;;5055503;28;20404;-86
2021/05/01 08:35:16;;;;;;;24.00;21.30;;;17.10;68.90;;;;;;5047021;28;20511;-90
2021/05/01 08:37:43;;;;;;;20.67;18.57;;;17.10;67.60;;;;;;5075486;28;20434;-90
2021/05/01 08:40:12;;;;;;;18.87;17.07;;;17.10;71.40;;;;;;5074373;28;20412;-88
2021/05/01 08:42:41;;;;;;;21.30;17.63;;;17.10;73.20;;;;;;5072489;28;20396;-90
2021/05/01 08:45:07;;;;;;;22.20;19.70;;;17.20;69.10;;;;;;5064624;28;20529;-91
2021/05/01 08:47:38;;;;;;;20.73;18.73;;;17.30;67.50;;;;;;5053383;28;20473;-92
2021/05/01 08:50:07;;;;;;;291.17;220.77;;;17.30;69.40;;;;;;5054358;28;20389;-91
2021/05/01 08:52:34;;;;;;;42.33;36.40;;;17.40;68.20;;;;;;5054063;28;20419;-92
2021/05/01 08:55:00;;;;;;;21.77;18.87;;;17.50;67.70;;;;;;5053284;28;20460;-91
2021/05/01 08:57:29;;;;;;;19.90;17.60;;;17.60;69.20;;;;;;5054011;28;20892;-91
2021/05/01 08:59:55;;;;;;;17.97;16.17;;;17.60;70.60;;;;;;5054037;28;20648;-92
2021/05/01 09:02:25;;;;;;;18.87;16.77;;;17.60;69.30;;;;;;5053713;28;20436;-90
2021/05/01 09:04:52;;;;;;;18.07;16.40;;;17.60;66.80;;;;;;5052297;28;20409;-84
2021/05/01 09:07:19;;;;;;;16.87;15.17;;;17.70;63.10;;;;;;5054380;28;20424;-83
2021/05/01 09:09:59;;;;;;;16.23;14.73;;;17.60;59.30;;;;;;5052480;28;20416;-83
2021/05/01 09:12:39;;;;;;;15.90;14.50;;;17.60;61.50;;;;;;5053233;28;20495;-84
2021/05/01 09:15:09;;;;;;;15.20;13.80;;;17.40;58.00;;;;;;5053551;28;20478;-83
2021/05/01 09:17:36;;;;;;;19.20;16.30;;;17.40;60.20;;;;;;5052934;28;20400;-84
2021/05/01 09:20:16;;;;;;;18.60;16.70;;;17.40;61.10;;;;;;5053436;28;20408;-84
2021/05/01 09:22:57;;;;;;;19.50;17.30;;;17.30;61.50;;;;;;5053155;28;20400;-84
2021/05/01 09:25:28;;;;;;;19.00;17.10;;;17.20;60.90;;;;;;5052668;28;20826;-83
2021/05/01 09:28:02;;;;;;;17.40;15.70;;;17.10;65.10;;;;;;5053134;28;20426;-83
2021/05/01 09:30:30;;;;;;;13.40;12.20;;;17.00;62.60;;;;;;5052880;28;20416;-83
2021/05/01 09:33:25;;;;;;;13.80;12.57;;;17.00;58.40;;;;;;5052210;28;20431;-82
2021/05/01 09:35:57;;;;;;;14.07;12.77;;;16.90;58.20;;;;;;5045642;28;20458;-83
2021/05/01 09:38:23;;;;;;;15.90;13.93;;;17.00;57.60;;;;;;5053128;28;20426;-83
2021/05/01 09:40:50;;;;;;;16.33;14.67;;;17.00;55.90;;;;;;5051410;28;20415;-83
2021/05/01 09:43:16;;;;;;;17.50;15.60;;;17.10;56.80;;;;;;5053268;28;20411;-86
2021/05/01 09:45:42;;;;;;;15.87;14.27;;;17.20;57.40;;;;;;5051269;28;20436;-81
2021/05/01 09:48:13;;;;;;;17.80;16.00;;;17.30;63.10;;;;;;5034713;28;20431;-79
2021/05/01 09:50:39;;;;;;;17.37;15.67;;;17.50;61.80;;;;;;5052322;28;20181;-79
2021/05/01 09:53:10;;;;;;;31.03;26.87;;;17.70;58.20;;;;;;5052321;28;20979;-79
2021/05/01 09:55:54;;;;;;;108.20;72.97;;;17.80;58.40;;;;;;5052504;28;20802;-77
2021/05/01 09:58:26;;;;;;;68.23;55.17;;;17.90;57.10;;;;;;5051400;28;20428;-77
2021/05/01 10:01:12;;;;;;;34.70;30.93;;;17.90;56.00;;;;;;5052287;28;20765;-77
2021/05/01 10:03:39;;;;;;;48.10;41.23;;;17.90;55.60;;;;;;5050049;28;20907;-77
2021/05/01 10:06:06;;;;;;;19.63;17.50;;;17.80;56.40;;;;;;5031860;28;20425;-77
2021/05/01 10:08:33;;;;;;;17.03;15.30;;;17.80;59.30;;;;;;5046321;28;20424;-85
2021/05/01 10:11:13;;;;;;;15.97;14.40;;;17.80;57.70;;;;;;5050615;28;20420;-84
2021/05/01 10:13:54;;;;;;;16.87;15.27;;;17.90;56.50;;;;;;5050426;28;20981;-86
2021/05/01 10:16:21;;;;;;;16.60;15.10;;;18.00;56.20;;;;;;5052584;28;20977;-86
2021/05/01 10:19:05;;;;;;;15.93;13.70;;;18.10;57.80;;;;;;5051799;28;20400;-86
2021/05/01 10:21:32;;;;;;;15.93;14.33;;;18.30;56.00;;;;;;5030886;28;20417;-87
2021/05/01 10:23:58;;;;;;;15.13;13.70;;;18.40;57.40;;;;;;5036233;28;20550;-85
2021/05/01 10:26:25;;;;;;;16.30;14.90;;;18.50;55.50;;;;;;5052057;28;20776;-86
2021/05/01 10:28:55;;;;;;;16.87;15.17;;;18.60;56.00;;;;;;5051100;28;20431;-86
2021/05/01 10:31:23;;;;;;;14.67;13.20;;;18.50;55.90;;;;;;5051730;28;20447;-86
2021/05/01 10:33:50;;;;;;;16.63;15.00;;;18.70;55.30;;;;;;5033539;28;20452;-85
2021/05/01 10:36:31;;;;;;;16.67;15.10;;;18.60;52.10;;;;;;5052083;28;20423;-86
2021/05/01 10:39:06;;;;;;;15.00;13.77;;;18.30;53.70;;;;;;5051915;28;20416;-85
2021/05/01 10:41:33;;;;;;;15.70;14.30;;;18.30;55.80;;;;;;5052181;28;20445;-85
2021/05/01 10:44:00;;;;;;;15.70;14.10;;;18.30;55.20;;;;;;5051686;28;20774;-85
2021/05/01 10:46:39;;;;;;;15.30;13.90;;;18.40;54.90;;;;;;5034469;28;20428;-85
2021/05/01 10:49:07;;;;;;;16.00;14.50;;;18.60;54.20;;;;;;5048662;28;20422;-86
2021/05/01 10:51:38;;;;;;;15.27;13.67;;;18.80;55.40;;;;;;5033190;28;20858;-88
2021/05/01 10:54:33;;;;;;;13.70;12.57;;;18.90;56.40;;;;;;5051390;28;20452;-85
2021/05/01 10:57:13;;;;;;;12.10;11.10;;;19.20;55.50;;;;;;5029643;28;20433;-85
2021/05/01 10:59:38;;;;;;;11.60;10.70;;;19.40;51.50;;;;;;5051549;28;20392;-85
2021/05/01 11:02:13;;;;;;;12.23;11.23;;;19.40;53.70;;;;;;5051945;28;20475;-85
2021/05/01 11:04:48;;;;;;;12.73;11.63;;;19.40;53.00;;;;;;5033195;28;20252;-84
2021/05/01 11:07:34;;;;;;;12.10;11.03;;;19.50;54.20;;;;;;5051274;28;20435;-84
2021/05/01 11:10:04;;;;;;;13.43;12.13;;;19.60;51.50;;;;;;5037079;28;20775;-85
2021/05/01 11:12:38;;;;;;;14.90;13.60;;;19.70;52.80;;;;;;5055456;28;20404;-85
2021/05/01 11:15:10;;;;;;;14.53;13.33;;;19.80;52.80;;;;;;5055679;28;20479;-86
2021/05/01 11:17:47;;;;;;;13.37;12.20;;;19.70;53.20;;;;;;5037007;28;20852;-86
2021/05/01 11:20:16;;;;;;;14.50;13.20;;;19.70;51.80;;;;;;5038012;28;20396;-85
2021/05/01 11:22:44;;;;;;;412.40;297.30;;;19.60;53.30;;;;;;5054684;28;20481;-86
2021/05/01 11:25:12;;;;;;;47.85;41.63;;;19.50;53.30;;;;;;5071534;28;20987;-84
2021/05/01 11:27:40;;;;;;;12.53;11.63;;;19.50;52.50;;;;;;5079411;28;20189;-85
2021/05/01 11:30:07;;;;;;;11.50;10.50;;;19.40;49.90;;;;;;5077220;28;20926;-85
2021/05/01 11:32:36;;;;;;;11.60;10.70;;;19.40;51.40;;;;;;5076060;28;20430;-85
2021/05/01 11:35:08;;;;;;;11.50;10.60;;;19.40;50.30;;;;;;5057496;28;20915;-85
2021/05/01 11:37:42;;;;;;;11.77;10.77;;;19.40;50.50;;;;;;5075087;28;20597;-85
2021/05/01 11:40:11;;;;;;;11.07;10.10;;;19.40;49.40;;;;;;5074386;28;20780;-85
2021/05/01 11:42:40;;;;;;;11.43;10.50;;;19.60;50.90;;;;;;5071820;28;20419;-85
2021/05/01 11:45:15;;;;;;;10.73;9.90;;;19.60;51.00;;;;;;5075622;28;20419;-85
2021/05/01 11:47:49;;;;;;;11.00;10.10;;;19.70;48.10;;;;;;5074473;28;20973;-85
2021/05/01 11:50:16;;;;;;;11.30;10.40;;;19.60;49.50;;;;;;5075141;28;20771;-85
2021/05/01 11:52:48;;;;;;;20.77;9.73;;;19.70;47.20;;;;;;5074568;28;20416;-85
2021/05/01 11:55:23;;;;;;;10.43;9.63;;;19.70;48.30;;;;;;5075121;28;20526;-86
2021/05/01 11:57:59;;;;;;;10.93;10.03;;;19.80;49.00;;;;;;5073885;28;20492;-86
2021/05/01 12:00:40;;;;;;;10.07;9.33;;;19.70;46.00;;;;;;5075007;28;20438;-85
2021/05/01 12:03:23;;;;;;;9.93;9.10;;;19.60;45.80;;;;;;5074604;28;20403;-85
2021/05/01 12:05:59;;;;;;;10.87;8.53;;;19.60;46.90;;;;;;5073771;28;20436;-86
2021/05/01 12:08:26;;;;;;;9.90;9.10;;;19.70;45.00;;;;;;5073073;28;20426;-86
2021/05/01 12:10:55;;;;;;;10.70;9.90;;;19.70;46.90;;;;;;5072949;28;20415;-86
2021/05/01 12:13:27;;;;;;;9.83;9.13;;;19.80;47.10;;;;;;5074676;28;20917;-85
2021/05/01 12:16:00;;;;;;;11.77;10.87;;;19.80;50.10;;;;;;5072640;28;20784;-85
2021/05/01 12:18:43;;;;;;;10.83;9.93;;;19.90;49.20;;;;;;5074695;28;20419;-84
2021/05/01 12:21:24;;;;;;;10.80;9.90;;;20.00;49.40;;;;;;5073734;28;20423;-85
2021/05/01 12:23:55;;;;;;;11.40;10.53;;;20.20;49.70;;;;;;5066460;28;20528;-84
2021/05/01 12:26:36;;;;;;;12.13;11.03;;;20.20;51.20;;;;;;5054679;28;20409;-84
2021/05/01 12:29:23;;;;;;;11.20;10.40;;;20.20;50.60;;;;;;5053956;28;20404;-84
2021/05/01 12:31:59;;;;;;;10.53;9.73;;;20.30;50.50;;;;;;5053650;28;20427;-84
2021/05/01 12:34:46;;;;;;;45.07;37.57;;;20.20;47.60;;;;;;5036404;28;20439;-86